Foyil, Oklahoma
Current Conditions -  °F | °C
As of 12:35 AM on Saturday 25 Oct 2014 (Local Time) from KGCM Reporting Station
Clear Clear  
Wind Chill: 63°   Ceiling: Unl
Heat Index: 63°   Visibility: 10mi
Dew Point: 59°   Wind: 5mph
Humidity: 88%   Direction: 170°S
Pressure: 30.08"   Gusts: NA
Location:  36.43°N, 95.52°W
Report Text: KGCM 250535Z AUTO 17004KT 10SM CLR 17/15 A3008 RMK AO2
Loading
Personal Weather Stations






























Interactive Weather Map
Tropical Storm Tracking
New forecast layout! Learn more

10-Day Weather Forecast

Advertisements
Track Severe Weather on mobile